createdAt,value
2017-02-08T00:00:16.280Z,0
2017-02-08T00:01:16.653Z,0
2017-02-08T00:02:16.242Z,0
2017-02-08T00:03:16.606Z,0
2017-02-08T00:04:16.190Z,0
2017-02-08T00:05:16.559Z,0
2017-02-08T00:06:16.744Z,0
2017-02-08T00:07:16.118Z,0
2017-02-08T00:08:16.495Z,0
2017-02-08T00:09:16.083Z,0
2017-02-08T00:10:16.447Z,0
2017-02-08T00:11:16.396Z,0
2017-02-08T00:12:16.381Z,0
2017-02-08T00:13:16.376Z,0
2017-02-08T00:14:16.352Z,0
2017-02-08T00:15:16.338Z,0
2017-02-08T00:16:16.287Z,0
2017-02-08T00:17:16.295Z,0
2017-02-08T00:18:16.257Z,0
2017-02-08T00:19:16.223Z,0
2017-02-08T00:20:16.192Z,0
2017-02-08T00:21:16.183Z,0
2017-02-08T00:22:15.777Z,0
2017-02-08T00:23:16.130Z,0
2017-02-08T00:24:16.095Z,0
2017-02-08T00:25:16.087Z,0
2017-02-08T00:26:16.041Z,0
2017-02-08T00:27:16.059Z,0
2017-02-08T00:28:16.012Z,0
2017-02-08T00:29:15.984Z,0
2017-02-08T00:30:15.976Z,0
2017-02-08T00:31:15.952Z,0
2017-02-08T00:32:15.935Z,0
2017-02-08T00:33:15.505Z,0
2017-02-08T00:34:15.490Z,0
2017-02-08T00:35:15.841Z,0
2017-02-08T00:36:15.428Z,0
2017-02-08T00:37:15.789Z,0
2017-02-08T00:38:15.761Z,0
2017-02-08T00:39:15.764Z,0
2017-02-08T00:40:15.344Z,0
2017-02-08T00:41:15.706Z,0
2017-02-08T00:42:15.294Z,0
2017-02-08T00:43:15.274Z,0
2017-02-08T00:44:15.260Z,0
2017-02-08T00:45:15.220Z,0
2017-02-08T00:46:15.581Z,0
2017-02-08T00:47:15.181Z,0
2017-02-08T00:48:15.535Z,0
2017-02-08T00:49:15.130Z,0
2017-02-08T00:50:15.122Z,0
2017-02-08T00:51:15.086Z,0
2017-02-08T00:52:15.455Z,0
2017-02-08T00:53:15.430Z,0
2017-02-08T00:54:15.416Z,0
2017-02-08T00:55:15.386Z,0
2017-02-08T00:56:15.345Z,0
2017-02-08T00:57:14.969Z,0
2017-02-08T00:58:14.550Z,0
2017-02-08T00:59:15.305Z,0
2017-02-08T01:00:14.876Z,0
2017-02-08T01:01:15.237Z,0
2017-02-08T01:02:14.847Z,0
2017-02-08T01:03:14.822Z,0
2017-02-08T01:04:14.811Z,0
2017-02-08T01:05:15.164Z,0
2017-02-08T01:06:14.733Z,0
2017-02-08T01:07:14.718Z,0
2017-02-08T01:08:15.090Z,0
2017-02-08T01:09:15.062Z,0
2017-02-08T01:10:14.652Z,0
2017-02-08T01:11:15.027Z,0
2017-02-08T01:12:14.617Z,0
2017-02-08T01:13:14.973Z,0
2017-02-08T01:14:14.948Z,0
2017-02-08T01:15:14.936Z,0
2017-02-08T01:16:14.505Z,0
2017-02-08T01:17:14.487Z,0
2017-02-08T01:18:14.852Z,0
2017-02-08T01:19:14.453Z,0
2017-02-08T01:20:14.416Z,0
2017-02-08T01:21:14.772Z,0
2017-02-08T01:22:14.381Z,0
2017-02-08T01:23:14.729Z,0
2017-02-08T01:24:14.341Z,0
2017-02-08T01:25:14.673Z,0
2017-02-08T01:26:14.656Z,0
2017-02-08T01:27:14.633Z,0
2017-02-08T01:28:14.623Z,0
2017-02-08T01:29:14.606Z,0
2017-02-08T01:30:14.579Z,0
2017-02-08T01:31:14.554Z,0
2017-02-08T01:32:14.137Z,0
2017-02-08T01:33:14.497Z,0
2017-02-08T01:34:14.471Z,0
2017-02-08T01:35:14.458Z,0
2017-02-08T01:36:14.055Z,0
2017-02-08T01:37:14.408Z,0
2017-02-08T01:38:14.381Z,0
2017-02-08T01:39:14.355Z,0
2017-02-08T01:40:13.977Z,0
2017-02-08T01:41:14.315Z,0
2017-02-08T01:42:14.279Z,0
2017-02-08T01:43:14.280Z,0
2017-02-08T01:44:14.242Z,0
2017-02-08T01:45:14.203Z,0
2017-02-08T01:46:14.187Z,0
2017-02-08T01:47:14.172Z,0
2017-02-08T01:48:14.140Z,0
2017-02-08T01:49:14.125Z,0
2017-02-08T01:50:13.314Z,0
2017-02-08T01:51:14.074Z,0
2017-02-08T01:52:14.045Z,0
2017-02-08T01:53:14.036Z,0
2017-02-08T01:54:14.021Z,0
2017-02-08T01:55:13.976Z,0
2017-02-08T01:56:13.964Z,0
2017-02-08T01:57:13.546Z,0
2017-02-08T01:58:13.936Z,0
2017-02-08T01:59:13.888Z,0
2017-02-08T02:00:13.480Z,0
2017-02-08T02:01:13.851Z,0
2017-02-08T02:02:13.810Z,0
2017-02-08T02:03:13.844Z,0
2017-02-08T02:04:13.794Z,0
2017-02-08T02:05:13.752Z,0
2017-02-08T02:06:13.727Z,0
2017-02-08T02:07:13.307Z,0
2017-02-08T02:08:13.688Z,0
2017-02-08T02:09:13.648Z,0
2017-02-08T02:10:13.244Z,0
2017-02-08T02:11:13.609Z,0
2017-02-08T02:12:12.822Z,0
2017-02-08T02:13:13.551Z,0
2017-02-08T02:14:13.524Z,0
2017-02-08T02:15:13.137Z,0
2017-02-08T02:16:13.111Z,0
2017-02-08T02:17:13.464Z,0
2017-02-08T02:18:13.433Z,0
2017-02-08T02:19:13.043Z,0
2017-02-08T02:20:13.020Z,0
2017-02-08T02:21:13.374Z,0
2017-02-08T02:22:13.342Z,0
2017-02-08T02:23:13.336Z,0
2017-02-08T02:24:13.317Z,0
2017-02-08T02:25:12.897Z,0
2017-02-08T02:26:12.901Z,0
2017-02-08T02:27:13.245Z,0
2017-02-08T02:28:12.816Z,0
2017-02-08T02:29:13.180Z,0
2017-02-08T02:30:13.175Z,0
2017-02-08T02:31:12.791Z,0
2017-02-08T02:32:13.128Z,0
2017-02-08T02:33:13.094Z,0
2017-02-08T02:34:12.681Z,0
2017-02-08T02:35:13.044Z,0
2017-02-08T02:36:13.032Z,0
2017-02-08T02:37:12.606Z,0
2017-02-08T02:38:12.990Z,0
2017-02-08T02:39:12.955Z,0
2017-02-08T02:40:12.551Z,0
2017-02-08T02:41:12.520Z,0
2017-02-08T02:42:12.893Z,0
2017-02-08T02:43:12.478Z,0
2017-02-08T02:44:12.469Z,0
2017-02-08T02:45:12.422Z,0
2017-02-08T02:46:12.409Z,0
2017-02-08T02:47:12.373Z,0
2017-02-08T02:48:12.754Z,0
2017-02-08T02:49:12.347Z,0
2017-02-08T02:50:12.717Z,0
2017-02-08T02:51:12.676Z,0
2017-02-08T02:52:12.673Z,0
2017-02-08T02:53:12.229Z,0
2017-02-08T02:54:12.210Z,0
2017-02-08T02:55:12.591Z,0
2017-02-08T02:56:12.173Z,0
2017-02-08T02:57:12.543Z,0
2017-02-08T02:58:12.514Z,0
2017-02-08T02:59:12.095Z,0
2017-02-08T03:00:12.444Z,0
2017-02-08T03:01:12.448Z,0
2017-02-08T03:02:12.416Z,0
2017-02-08T03:03:12.404Z,0
2017-02-08T03:04:11.603Z,0
2017-02-08T03:05:12.343Z,0
2017-02-08T03:06:12.331Z,0
2017-02-08T03:07:12.308Z,0
2017-02-08T03:08:12.279Z,0
2017-02-08T03:09:12.243Z,0
2017-02-08T03:10:12.235Z,0
2017-02-08T03:11:11.818Z,0
2017-02-08T03:12:12.187Z,0
2017-02-08T03:13:12.171Z,0
2017-02-08T03:14:11.732Z,0
2017-02-08T03:15:12.120Z,0
2017-02-08T03:16:11.691Z,0
2017-02-08T03:17:12.059Z,0
2017-02-08T03:18:12.046Z,0
2017-02-08T03:19:12.014Z,0
2017-02-08T03:20:12.009Z,0
2017-02-08T03:21:11.588Z,0
2017-02-08T03:22:11.954Z,0
2017-02-08T03:23:11.922Z,0
2017-02-08T03:24:11.925Z,0
2017-02-08T03:25:11.886Z,0
2017-02-08T03:26:11.099Z,0
2017-02-08T03:27:11.838Z,0
2017-02-08T03:28:11.805Z,0
2017-02-08T03:29:11.792Z,0
2017-02-08T03:30:11.378Z,0
2017-02-08T03:31:11.754Z,0
2017-02-08T03:32:11.716Z,0
2017-02-08T03:33:11.709Z,0
2017-02-08T03:34:11.715Z,0
2017-02-08T03:35:11.660Z,0
2017-02-08T03:36:11.635Z,0
2017-02-08T03:37:11.593Z,0
2017-02-08T03:38:11.196Z,0
2017-02-08T03:39:11.541Z,0
2017-02-08T03:40:11.142Z,0
2017-02-08T03:41:11.492Z,0
2017-02-08T03:42:11.482Z,0
2017-02-08T03:43:11.477Z,0
2017-02-08T03:44:11.451Z,0
2017-02-08T03:45:11.541Z,0
2017-02-08T03:46:11.390Z,0
2017-02-08T03:47:11.381Z,0
2017-02-08T03:48:10.968Z,0
2017-02-08T03:49:11.347Z,0
2017-02-08T03:50:10.903Z,0
2017-02-08T03:51:11.285Z,0
2017-02-08T03:52:10.476Z,0
2017-02-08T03:53:11.226Z,0
2017-02-08T03:54:11.205Z,0
2017-02-08T03:55:10.794Z,0
2017-02-08T03:56:11.168Z,0
2017-02-08T03:57:10.767Z,0
2017-02-08T03:58:10.734Z,0
2017-02-08T03:59:11.102Z,0
2017-02-08T04:00:10.727Z,0
2017-02-08T04:01:10.648Z,0
2017-02-08T04:02:10.246Z,0
2017-02-08T04:03:10.995Z,0
2017-02-08T04:04:10.202Z,0
2017-02-08T04:05:10.962Z,0
2017-02-08T04:06:10.164Z,0
2017-02-08T04:07:10.527Z,0
2017-02-08T04:08:10.494Z,0
2017-02-08T04:09:10.888Z,0
2017-02-08T04:10:10.454Z,0
2017-02-08T04:11:10.825Z,0
2017-02-08T04:12:10.025Z,0
2017-02-08T04:13:10.786Z,0
2017-02-08T04:14:10.770Z,0
2017-02-08T04:15:10.728Z,0
2017-02-08T04:16:09.951Z,0
2017-02-08T04:17:09.927Z,0
2017-02-08T04:18:10.263Z,0
2017-02-08T04:19:10.244Z,0
2017-02-08T04:20:10.219Z,0
2017-02-08T04:21:10.599Z,0
2017-02-08T04:22:10.574Z,0
2017-02-08T04:23:10.155Z,0
2017-02-08T04:24:10.514Z,0
2017-02-08T04:25:10.109Z,0
2017-02-08T04:26:10.480Z,0
2017-02-08T04:27:10.435Z,0
2017-02-08T04:28:10.426Z,0
2017-02-08T04:29:10.017Z,0
2017-02-08T04:30:10.388Z,0
2017-02-08T04:31:10.354Z,0
2017-02-08T04:32:10.340Z,0
2017-02-08T04:33:10.318Z,0
2017-02-08T04:34:10.299Z,0
2017-02-08T04:35:09.879Z,0
2017-02-08T04:36:10.255Z,0
2017-02-08T04:37:09.879Z,0
2017-02-08T04:38:10.206Z,0
2017-02-08T04:39:10.195Z,0
2017-02-08T04:40:09.773Z,0
2017-02-08T04:41:09.796Z,0
2017-02-08T04:42:09.716Z,0
2017-02-08T04:43:10.294Z,0
2017-02-08T04:44:10.058Z,0
2017-02-08T04:45:10.054Z,0
2017-02-08T04:46:10.018Z,0
2017-02-08T04:47:09.805Z,0
2017-02-08T04:48:09.981Z,0
2017-02-08T04:49:10.165Z,0
2017-02-08T04:50:09.550Z,0
2017-02-08T04:51:09.912Z,0
2017-02-08T04:52:09.891Z,0
2017-02-08T04:53:09.473Z,0
2017-02-08T04:54:09.826Z,0
2017-02-08T04:55:09.809Z,0
2017-02-08T04:56:09.440Z,0
2017-02-08T04:57:09.761Z,0
2017-02-08T04:58:09.757Z,0
2017-02-08T04:59:09.737Z,0
2017-02-08T05:00:09.338Z,0
2017-02-08T05:01:09.675Z,0
2017-02-08T05:02:09.658Z,0
2017-02-08T05:03:09.644Z,0
2017-02-08T05:04:09.231Z,0
2017-02-08T05:05:09.580Z,0
2017-02-08T05:06:09.180Z,0
2017-02-08T05:07:09.531Z,0
2017-02-08T05:08:09.530Z,0
2017-02-08T05:09:09.491Z,0
2017-02-08T05:10:09.495Z,0
2017-02-08T05:11:09.441Z,0
2017-02-08T05:12:09.436Z,0
2017-02-08T05:13:09.395Z,0
2017-02-08T05:14:09.362Z,0
2017-02-08T05:15:09.359Z,0
2017-02-08T05:16:09.345Z,0
2017-02-08T05:17:09.308Z,0
2017-02-08T05:18:09.299Z,0
2017-02-08T05:19:09.274Z,0
2017-02-08T05:20:08.867Z,0
2017-02-08T05:21:09.235Z,0
2017-02-08T05:22:09.197Z,0
2017-02-08T05:23:09.194Z,0
2017-02-08T05:24:08.766Z,0
2017-02-08T05:25:09.163Z,0
2017-02-08T05:26:08.744Z,0
2017-02-08T05:27:09.310Z,0
2017-02-08T05:28:08.694Z,0
2017-02-08T05:29:09.065Z,0
2017-02-08T05:30:08.651Z,0
2017-02-08T05:31:09.019Z,0
2017-02-08T05:32:08.979Z,0
2017-02-08T05:33:08.954Z,0
2017-02-08T05:34:08.967Z,0
2017-02-08T05:35:08.923Z,0
2017-02-08T05:36:08.907Z,0
2017-02-08T05:37:08.892Z,0
2017-02-08T05:38:08.862Z,0
2017-02-08T05:39:08.841Z,0
2017-02-08T05:40:08.455Z,0
2017-02-08T05:41:08.792Z,0
2017-02-08T05:42:08.001Z,0
2017-02-08T05:43:08.762Z,0
2017-02-08T05:44:08.734Z,0
2017-02-08T05:45:08.707Z,0
2017-02-08T05:46:08.673Z,0
2017-02-08T05:47:08.665Z,0
2017-02-08T05:48:08.631Z,0
2017-02-08T05:49:21.992Z,0
2017-02-08T05:50:08.609Z,0
2017-02-08T05:51:08.618Z,0
2017-02-08T05:52:08.171Z,0
2017-02-08T05:53:08.547Z,0
2017-02-08T05:54:08.718Z,0
2017-02-08T05:55:08.728Z,0
2017-02-08T05:56:08.096Z,0
2017-02-08T05:57:08.440Z,0
2017-02-08T05:58:08.037Z,0
2017-02-08T05:59:08.400Z,0
2017-02-08T06:00:07.819Z,0
2017-02-08T06:01:08.360Z,0
2017-02-08T06:02:07.969Z,0
2017-02-08T06:03:08.304Z,0
2017-02-08T06:04:08.292Z,0
2017-02-08T06:05:08.269Z,0
2017-02-08T06:06:08.239Z,0
2017-02-08T06:07:08.245Z,0
2017-02-08T06:08:08.193Z,0
2017-02-08T06:09:08.188Z,0
2017-02-08T06:10:08.151Z,0
2017-02-08T06:11:08.133Z,0
2017-02-08T06:12:07.729Z,0
2017-02-08T06:13:08.105Z,0
2017-02-08T06:14:07.666Z,0
2017-02-08T06:15:08.039Z,0
2017-02-08T06:16:07.651Z,0
2017-02-08T06:17:08.001Z,0
2017-02-08T06:18:07.590Z,0
2017-02-08T06:19:07.959Z,0
2017-02-08T06:20:07.937Z,0
2017-02-08T06:21:07.915Z,0
2017-02-08T06:22:07.494Z,0
2017-02-08T06:23:07.882Z,0
2017-02-08T06:24:07.839Z,0
2017-02-08T06:25:07.845Z,0
2017-02-08T06:26:07.813Z,5
2017-02-08T06:27:07.771Z,5
2017-02-08T06:28:07.958Z,5
2017-02-08T06:29:07.739Z,5
2017-02-08T06:30:21.862Z,5
2017-02-08T06:31:07.686Z,5
2017-02-08T06:32:07.697Z,5
2017-02-08T06:33:07.841Z,10
2017-02-08T06:34:07.629Z,10
2017-02-08T06:35:07.602Z,10
2017-02-08T06:36:07.585Z,10
2017-02-08T06:37:07.789Z,10
2017-02-08T06:38:07.548Z,15
2017-02-08T06:39:07.536Z,15
2017-02-08T06:40:07.505Z,15
2017-02-08T06:41:07.096Z,15
2017-02-08T06:42:07.464Z,15
2017-02-08T06:43:07.445Z,20
2017-02-08T06:44:07.420Z,20
2017-02-08T06:45:07.399Z,20
2017-02-08T06:46:07.382Z,25
2017-02-08T06:47:07.365Z,25
2017-02-08T06:48:07.333Z,30
2017-02-08T06:49:07.310Z,30
2017-02-08T06:50:07.288Z,35
2017-02-08T06:51:07.277Z,35
2017-02-08T06:52:07.245Z,35
2017-02-08T06:53:07.204Z,40
2017-02-08T06:54:07.203Z,40
2017-02-08T06:55:07.415Z,45
2017-02-08T06:56:07.153Z,45
2017-02-08T06:57:07.114Z,50
2017-02-08T06:58:07.109Z,50
2017-02-08T06:59:07.096Z,50
2017-02-08T07:00:07.083Z,55
2017-02-08T07:01:07.259Z,60
2017-02-08T07:02:07.020Z,60
2017-02-08T07:03:06.642Z,60
2017-02-08T07:04:06.591Z,65
2017-02-08T07:05:06.966Z,65
2017-02-08T07:06:06.951Z,65
2017-02-08T07:07:06.934Z,70
2017-02-08T07:08:06.904Z,75
2017-02-08T07:09:06.864Z,75
2017-02-08T07:10:06.846Z,75
2017-02-08T07:11:06.859Z,80
2017-02-08T07:12:06.824Z,80
2017-02-08T07:13:06.779Z,90
2017-02-08T07:14:06.764Z,95
2017-02-08T07:15:06.754Z,90
2017-02-08T07:16:06.744Z,95
2017-02-08T07:17:06.705Z,100
2017-02-08T07:18:06.694Z,100
2017-02-08T07:19:06.657Z,105
2017-02-08T07:20:06.666Z,105
2017-02-08T07:21:06.593Z,105
2017-02-08T07:22:06.572Z,105
2017-02-08T07:23:06.574Z,110
2017-02-08T07:24:06.537Z,115
2017-02-08T07:25:06.519Z,120
2017-02-08T07:26:06.527Z,120
2017-02-08T07:27:06.486Z,120
2017-02-08T07:28:06.689Z,120
2017-02-08T07:29:06.469Z,125
2017-02-08T07:30:06.034Z,130
2017-02-08T07:31:06.389Z,140
2017-02-08T07:32:06.379Z,145
2017-02-08T07:33:05.981Z,150
2017-02-08T07:34:06.344Z,155
2017-02-08T07:35:06.327Z,155
2017-02-08T07:36:06.276Z,150
2017-02-08T07:37:05.883Z,155
2017-02-08T07:38:06.268Z,160
2017-02-08T07:39:06.235Z,165
2017-02-08T07:40:06.225Z,170
2017-02-08T07:41:06.195Z,165
2017-02-08T07:42:06.210Z,170
2017-02-08T07:43:06.168Z,170
2017-02-08T07:44:06.136Z,170
2017-02-08T07:45:06.105Z,175
2017-02-08T07:46:06.106Z,185
2017-02-08T07:47:06.067Z,190
2017-02-08T07:48:06.043Z,200
2017-02-08T07:49:06.023Z,205
2017-02-08T07:50:06.006Z,215
2017-02-08T07:51:05.979Z,210
2017-02-08T07:52:05.956Z,210
2017-02-08T07:53:05.918Z,210
2017-02-08T07:54:05.933Z,210
2017-02-08T07:55:05.896Z,215
2017-02-08T07:56:05.889Z,215
2017-02-08T07:57:05.463Z,220
2017-02-08T07:58:05.854Z,220
2017-02-08T07:59:05.796Z,225
2017-02-08T08:00:05.833Z,225
2017-02-08T08:01:05.780Z,225
2017-02-08T08:02:05.737Z,225
2017-02-08T08:03:05.740Z,225
2017-02-08T08:04:05.705Z,235
2017-02-08T08:05:05.680Z,250
2017-02-08T08:06:05.666Z,250
2017-02-08T08:07:05.856Z,250
2017-02-08T08:08:05.612Z,255
2017-02-08T08:09:05.595Z,270
2017-02-08T08:10:05.191Z,275
2017-02-08T08:11:05.561Z,285
2017-02-08T08:12:05.791Z,300
2017-02-08T08:13:05.731Z,295
2017-02-08T08:14:05.481Z,285
2017-02-08T08:15:05.476Z,285
2017-02-08T08:16:05.450Z,285
2017-02-08T08:17:05.442Z,275
2017-02-08T08:18:05.387Z,275
2017-02-08T08:19:05.384Z,290
2017-02-08T08:20:05.372Z,305
2017-02-08T08:21:05.343Z,315
2017-02-08T08:22:05.307Z,335
2017-02-08T08:23:05.289Z,330
2017-02-08T08:24:05.286Z,330
2017-02-08T08:25:05.266Z,320
2017-02-08T08:26:05.238Z,320
2017-02-08T08:27:05.272Z,325
2017-02-08T08:28:05.201Z,345
2017-02-08T08:29:05.162Z,365
2017-02-08T08:30:05.156Z,360
2017-02-08T08:31:05.134Z,365
2017-02-08T08:32:05.120Z,355
2017-02-08T08:33:05.080Z,350
2017-02-08T08:34:05.058Z,350
2017-02-08T08:35:05.063Z,380
2017-02-08T08:36:05.012Z,385
2017-02-08T08:37:04.997Z,380
2017-02-08T08:38:05.000Z,365
2017-02-08T08:39:04.975Z,355
2017-02-08T08:40:04.932Z,345
2017-02-08T08:41:04.920Z,330
2017-02-08T08:42:04.890Z,320
2017-02-08T08:43:04.887Z,320
2017-02-08T08:44:04.857Z,320
2017-02-08T08:45:04.838Z,355
2017-02-08T08:46:04.810Z,400
2017-02-08T08:47:04.810Z,505
2017-02-08T08:48:04.755Z,645
2017-02-08T08:49:04.736Z,725
2017-02-08T08:50:04.707Z,685
2017-02-08T08:51:04.720Z,635
2017-02-08T08:52:04.685Z,575
2017-02-08T08:53:04.668Z,495
2017-02-08T08:54:04.642Z,425
2017-02-08T08:55:04.617Z,380
2017-02-08T08:56:04.613Z,380
2017-02-08T08:57:04.579Z,415
2017-02-08T08:58:04.565Z,420
2017-02-08T08:59:04.539Z,435
2017-02-08T09:00:04.528Z,445
2017-02-08T09:01:04.506Z,435
2017-02-08T09:02:04.457Z,435
2017-02-08T09:03:04.437Z,450
2017-02-08T09:04:04.045Z,460
2017-02-08T09:05:04.414Z,465
2017-02-08T09:06:04.393Z,500
2017-02-08T09:07:04.380Z,560
2017-02-08T09:08:04.364Z,600
2017-02-08T09:09:04.322Z,615
2017-02-08T09:10:04.303Z,605
2017-02-08T09:11:04.289Z,590
2017-02-08T09:12:04.259Z,600
2017-02-08T09:13:04.251Z,615
2017-02-08T09:14:04.227Z,605
2017-02-08T09:15:04.203Z,610
2017-02-08T09:16:04.193Z,605
2017-02-08T09:17:04.186Z,620
2017-02-08T09:18:03.778Z,590
2017-02-08T09:19:04.131Z,585
2017-02-08T09:20:04.105Z,600
2017-02-08T09:21:04.101Z,605
2017-02-08T09:22:04.092Z,615
2017-02-08T09:23:04.063Z,595
2017-02-08T09:24:04.021Z,580
2017-02-08T09:25:04.022Z,570
2017-02-08T09:26:04.001Z,575
2017-02-08T09:27:03.977Z,560
2017-02-08T09:28:03.970Z,550
2017-02-08T09:29:03.953Z,570
2017-02-08T09:30:03.908Z,580
2017-02-08T09:31:03.916Z,625
2017-02-08T09:32:03.898Z,665
2017-02-08T09:33:03.864Z,685
2017-02-08T09:34:03.462Z,720
2017-02-08T09:35:03.836Z,770
2017-02-08T09:36:03.803Z,780
2017-02-08T09:37:03.806Z,750
2017-02-08T09:38:03.772Z,685
2017-02-08T09:39:03.771Z,640
2017-02-08T09:40:03.740Z,620
2017-02-08T09:41:03.713Z,600
2017-02-08T09:42:03.698Z,645
2017-02-08T09:43:03.698Z,715
2017-02-08T09:44:03.668Z,755
2017-02-08T09:45:03.675Z,775
2017-02-08T09:46:03.627Z,750
2017-02-08T09:47:03.607Z,700
2017-02-08T09:48:03.584Z,675
2017-02-08T09:49:03.579Z,660
2017-02-08T09:50:03.590Z,640
2017-02-08T09:51:03.522Z,605
2017-02-08T09:52:03.522Z,540
2017-02-08T09:53:03.509Z,515
2017-02-08T09:54:03.495Z,605
2017-02-08T09:55:03.470Z,650
2017-02-08T09:56:03.447Z,655
2017-02-08T09:57:03.441Z,730
2017-02-08T09:58:03.420Z,810
2017-02-08T09:59:03.402Z,780
2017-02-08T10:00:03.373Z,725
2017-02-08T10:01:03.369Z,785
2017-02-08T10:02:03.341Z,825
2017-02-08T10:03:03.312Z,890
2017-02-08T10:04:03.302Z,880
2017-02-08T10:05:02.919Z,905
2017-02-08T10:06:03.248Z,915
2017-02-08T10:07:03.233Z,910
2017-02-08T10:08:03.221Z,885
2017-02-08T10:09:03.199Z,895
2017-02-08T10:10:03.191Z,890
2017-02-08T10:11:03.166Z,880
2017-02-08T10:12:03.170Z,850
2017-02-08T10:13:03.137Z,895
2017-02-08T10:14:03.108Z,895
2017-02-08T10:15:03.102Z,950
2017-02-08T10:16:03.102Z,975
2017-02-08T10:17:03.063Z,970
2017-02-08T10:18:03.078Z,925
2017-02-08T10:19:03.024Z,865
2017-02-08T10:20:02.615Z,840
2017-02-08T10:21:02.985Z,835
2017-02-08T10:22:02.581Z,810
2017-02-08T10:23:02.970Z,770
2017-02-08T10:24:02.942Z,740
2017-02-08T10:25:02.530Z,715
2017-02-08T10:26:02.908Z,700
2017-02-08T10:27:02.865Z,690
2017-02-08T10:28:02.474Z,690
2017-02-08T10:29:02.833Z,670
2017-02-08T10:30:02.822Z,640
2017-02-08T10:31:02.804Z,625
2017-02-08T10:32:02.399Z,620
2017-02-08T10:33:02.761Z,615
2017-02-08T10:34:02.763Z,610
2017-02-08T10:35:02.743Z,600
2017-02-08T10:36:02.723Z,590
2017-02-08T10:37:02.692Z,595
2017-02-08T10:38:02.664Z,590
2017-02-08T10:39:02.650Z,590
2017-02-08T10:40:02.627Z,590
2017-02-08T10:41:02.605Z,595
2017-02-08T10:42:02.207Z,590
2017-02-08T10:43:02.583Z,580
2017-02-08T10:44:02.553Z,580
2017-02-08T10:45:02.545Z,595
2017-02-08T10:46:02.563Z,610
2017-02-08T10:47:02.496Z,610
2017-02-08T10:48:02.493Z,590
2017-02-08T10:49:02.455Z,600
2017-02-08T10:50:02.436Z,635
2017-02-08T10:51:02.440Z,675
2017-02-08T10:52:02.015Z,725
2017-02-08T10:53:02.386Z,760
2017-02-08T10:54:02.364Z,760
2017-02-08T10:55:02.361Z,725
2017-02-08T10:56:02.343Z,700
2017-02-08T10:57:02.312Z,680
2017-02-08T10:58:01.927Z,680
2017-02-08T10:59:02.262Z,680
2017-02-08T11:00:02.265Z,685
2017-02-08T11:01:02.245Z,685
2017-02-08T11:02:02.208Z,685
2017-02-08T11:03:02.186Z,685
2017-02-08T11:04:01.799Z,675
2017-02-08T11:05:02.151Z,670
2017-02-08T11:06:02.150Z,665
2017-02-08T11:07:02.351Z,660
2017-02-08T11:08:02.099Z,660
2017-02-08T11:09:02.071Z,660
2017-02-08T11:10:02.072Z,660
2017-02-08T11:11:02.039Z,655
2017-02-08T11:12:02.035Z,650
2017-02-08T11:13:02.018Z,645
2017-02-08T11:14:02.008Z,635
2017-02-08T11:15:01.967Z,630
2017-02-08T11:16:01.578Z,635
2017-02-08T11:17:01.548Z,655
2017-02-08T11:18:01.929Z,675
2017-02-08T11:19:01.896Z,670
2017-02-08T11:20:01.881Z,670
2017-02-08T11:21:01.860Z,660
2017-02-08T11:22:01.870Z,660
2017-02-08T11:23:01.839Z,675
2017-02-08T11:24:01.829Z,685
2017-02-08T11:25:01.790Z,680
2017-02-08T11:26:01.406Z,660
2017-02-08T11:27:01.771Z,660
2017-02-08T11:28:01.743Z,695
2017-02-08T11:29:00.953Z,760
2017-02-08T11:30:01.716Z,885
2017-02-08T11:31:01.689Z,1250
2017-02-08T11:32:01.673Z,1635
2017-02-08T11:33:01.280Z,1940
2017-02-08T11:34:01.654Z,1800
2017-02-08T11:35:01.227Z,1585
2017-02-08T11:36:01.223Z,1265
2017-02-08T11:37:01.202Z,1185
2017-02-08T11:38:01.189Z,1160
2017-02-08T11:39:01.570Z,1190
2017-02-08T11:40:01.155Z,1065
2017-02-08T11:41:01.127Z,980
2017-02-08T11:42:01.494Z,950
2017-02-08T11:43:01.486Z,910
2017-02-08T11:44:01.469Z,905
2017-02-08T11:45:01.066Z,905
2017-02-08T11:46:01.057Z,895
2017-02-08T11:47:01.415Z,885
2017-02-08T11:48:01.399Z,845
2017-02-08T11:49:01.378Z,785
2017-02-08T11:50:01.369Z,760
2017-02-08T11:51:01.351Z,780
2017-02-08T11:52:01.093Z,805
2017-02-08T11:53:01.313Z,785
2017-02-08T11:54:01.316Z,760
2017-02-08T11:55:00.886Z,755
2017-02-08T11:56:00.874Z,750
2017-02-08T11:57:01.359Z,745
2017-02-08T11:58:01.229Z,750
2017-02-08T11:59:01.200Z,775
2017-02-08T12:00:01.198Z,770
2017-02-08T12:01:00.408Z,775
2017-02-08T12:02:00.789Z,780
2017-02-08T12:03:00.754Z,805
2017-02-08T12:04:01.126Z,880
2017-02-08T12:05:01.107Z,895
2017-02-08T12:06:01.087Z,885
2017-02-08T12:07:01.323Z,880
2017-02-08T12:08:00.665Z,835
2017-02-08T12:09:01.025Z,820
2017-02-08T12:10:01.018Z,805
2017-02-08T12:11:01.013Z,805
2017-02-08T12:12:00.601Z,800
2017-02-08T12:13:00.579Z,805
2017-02-08T12:14:00.569Z,810
2017-02-08T12:15:00.932Z,760
2017-02-08T12:16:00.925Z,745
2017-02-08T12:17:00.896Z,730
2017-02-08T12:18:00.896Z,725
2017-02-08T12:19:00.861Z,755
2017-02-08T12:20:00.836Z,760
2017-02-08T12:21:00.825Z,825
2017-02-08T12:22:00.823Z,875
2017-02-08T12:23:00.784Z,875
2017-02-08T12:24:00.773Z,795
2017-02-08T12:25:00.746Z,830
2017-02-08T12:26:00.744Z,845
2017-02-08T12:27:00.723Z,805
2017-02-08T12:28:00.690Z,750
2017-02-08T12:29:00.674Z,765
2017-02-08T12:30:00.306Z,720
2017-02-08T12:31:00.255Z,750
2017-02-08T12:32:00.629Z,825
2017-02-08T12:33:00.625Z,910
2017-02-08T12:34:00.592Z,820
2017-02-08T12:35:00.590Z,800
2017-02-08T12:36:00.184Z,770
2017-02-08T12:37:00.575Z,725
2017-02-08T12:38:00.652Z,735
2017-02-08T12:39:00.133Z,755
2017-02-08T12:40:00.126Z,745
2017-02-08T12:41:00.510Z,750
2017-02-08T12:42:00.086Z,775
2017-02-08T12:43:00.541Z,870
2017-02-08T12:44:00.439Z,785
2017-02-08T12:45:00.423Z,720
2017-02-08T12:46:00.406Z,645
2017-02-08T12:47:00.407Z,620
2017-02-08T12:47:59.988Z,635
2017-02-08T12:49:00.360Z,645
2017-02-08T12:50:00.557Z,645
2017-02-08T12:51:00.323Z,650
2017-02-08T12:52:00.301Z,660
2017-02-08T12:53:00.311Z,640
2017-02-08T12:53:59.884Z,665
2017-02-08T12:55:00.252Z,630
2017-02-08T12:55:59.850Z,595
2017-02-08T12:57:00.215Z,580
2017-02-08T12:57:59.817Z,560
2017-02-08T12:59:00.191Z,570
2017-02-08T13:00:00.175Z,575
2017-02-08T13:01:00.159Z,580
2017-02-08T13:02:00.142Z,575
2017-02-08T13:03:00.132Z,565
2017-02-08T13:04:00.096Z,555
2017-02-08T13:05:00.083Z,550
2017-02-08T13:06:00.099Z,540
2017-02-08T13:07:00.073Z,530
2017-02-08T13:08:00.028Z,540
2017-02-08T13:09:00.033Z,540
2017-02-08T13:09:59.998Z,540
2017-02-08T13:11:00.005Z,545
2017-02-08T13:11:59.978Z,540
2017-02-08T13:12:59.957Z,525
2017-02-08T13:13:59.937Z,510
2017-02-08T13:14:59.912Z,520
2017-02-08T13:15:59.897Z,530
2017-02-08T13:16:59.918Z,510
2017-02-08T13:17:59.883Z,500
2017-02-08T13:18:59.858Z,500
2017-02-08T13:19:59.833Z,520
2017-02-08T13:20:59.821Z,505
2017-02-08T13:21:59.808Z,490
2017-02-08T13:22:59.804Z,485
2017-02-08T13:23:59.788Z,470
2017-02-08T13:24:59.767Z,460
2017-02-08T13:25:59.727Z,460
2017-02-08T13:26:59.720Z,460
2017-02-08T13:27:59.701Z,460
2017-02-08T13:28:59.304Z,455
2017-02-08T13:29:59.670Z,455
2017-02-08T13:30:59.278Z,460
2017-02-08T13:31:59.254Z,475
2017-02-08T13:32:59.612Z,495
2017-02-08T13:33:59.239Z,505
2017-02-08T13:34:59.605Z,510
2017-02-08T13:35:59.184Z,525
2017-02-08T13:36:59.551Z,545
2017-02-08T13:37:59.556Z,565
2017-02-08T13:38:59.633Z,575
2017-02-08T13:39:59.514Z,575
2017-02-08T13:40:59.487Z,575
2017-02-08T13:41:59.100Z,580
2017-02-08T13:42:59.451Z,580
2017-02-08T13:43:59.435Z,570
2017-02-08T13:44:59.459Z,580
2017-02-08T13:45:59.416Z,630
2017-02-08T13:46:59.396Z,675
2017-02-08T13:47:59.373Z,700
2017-02-08T13:48:59.453Z,695
2017-02-08T13:49:59.332Z,695
2017-02-08T13:50:59.344Z,710
2017-02-08T13:51:59.318Z,735
2017-02-08T13:52:59.267Z,750
2017-02-08T13:53:59.305Z,775
2017-02-08T13:54:59.259Z,780
2017-02-08T13:55:59.241Z,765
2017-02-08T13:56:59.228Z,770
2017-02-08T13:57:59.198Z,770
2017-02-08T13:58:59.195Z,750
2017-02-08T13:59:59.185Z,740
2017-02-08T14:00:59.172Z,725
2017-02-08T14:01:59.148Z,685
2017-02-08T14:02:59.122Z,640
2017-02-08T14:03:59.155Z,605
2017-02-08T14:04:59.084Z,565
2017-02-08T14:05:59.073Z,530
2017-02-08T14:06:59.062Z,510
2017-02-08T14:07:59.061Z,500
2017-02-08T14:08:59.030Z,505
2017-02-08T14:09:59.025Z,515
2017-02-08T14:10:59.014Z,530
2017-02-08T14:11:58.982Z,520
2017-02-08T14:12:58.968Z,505
2017-02-08T14:13:58.971Z,490